sensor_id;sensor_type;location;lat;lon;timestamp;temperature;humidity
21246;DHT22;10781;50.928;4.440;2023-02-15T00:01:46;6.90;99.90
21246;DHT22;10781;50.928;4.440;2023-02-15T00:04:18;6.90;99.90
21246;DHT22;10781;50.928;4.440;2023-02-15T00:06:44;7.10;99.90
21246;DHT22;10781;50.928;4.440;2023-02-15T00:09:10;6.90;99.90
21246;DHT22;10781;50.928;4.440;2023-02-15T00:11:36;6.40;99.90
21246;DHT22;10781;50.928;4.440;2023-02-15T00:14:14;6.10;99.90
21246;DHT22;10781;50.928;4.440;2023-02-15T00:16:41;6.10;99.90
21246;DHT22;10781;50.928;4.440;2023-02-15T00:19:09;6.30;99.90
21246;DHT22;10781;50.928;4.440;2023-02-15T00:21:36;6.10;99.90
21246;DHT22;10781;50.928;4.440;2023-02-15T00:24:04;6.10;99.90
21246;DHT22;10781;50.928;4.440;2023-02-15T00:26:30;6.30;99.90
21246;DHT22;10781;50.928;4.440;2023-02-15T00:28:57;6.30;99.90
21246;DHT22;10781;50.928;4.440;2023-02-15T00:31:27;6.40;99.90
21246;DHT22;10781;50.928;4.440;2023-02-15T00:33:53;6.50;99.90
21246;DHT22;10781;50.928;4.440;2023-02-15T00:36:19;6.20;99.90
21246;DHT22;10781;50.928;4.440;2023-02-15T00:38:44;5.80;99.90
21246;DHT22;10781;50.928;4.440;2023-02-15T00:41:10;5.60;99.90
21246;DHT22;10781;50.928;4.440;2023-02-15T00:43:36;5.60;99.90
21246;DHT22;10781;50.928;4.440;2023-02-15T00:46:04;5.90;99.90
21246;DHT22;10781;50.928;4.440;2023-02-15T00:48:30;6.00;99.90
21246;DHT22;10781;50.928;4.440;2023-02-15T00:50:57;5.70;99.90
21246;DHT22;10781;50.928;4.440;2023-02-15T00:53:26;5.60;99.90
21246;DHT22;10781;50.928;4.440;2023-02-15T00:55:52;5.50;99.90
21246;DHT22;10781;50.928;4.440;2023-02-15T00:58:18;5.40;99.90
21246;DHT22;10781;50.928;4.440;2023-02-15T01:00:46;5.40;99.90
21246;DHT22;10781;50.928;4.440;2023-02-15T01:03:13;5.30;99.90
21246;DHT22;10781;50.928;4.440;2023-02-15T01:05:40;5.20;99.90
21246;DHT22;10781;50.928;4.440;2023-02-15T01:08:06;5.20;99.90
21246;DHT22;10781;50.928;4.440;2023-02-15T01:10:33;5.20;99.90
21246;DHT22;10781;50.928;4.440;2023-02-15T01:12:59;5.40;99.90
21246;DHT22;10781;50.928;4.440;2023-02-15T01:15:25;5.60;99.90
21246;DHT22;10781;50.928;4.440;2023-02-15T01:17:51;5.30;99.90
21246;DHT22;10781;50.928;4.440;2023-02-15T01:20:20;5.20;99.90
21246;DHT22;10781;50.928;4.440;2023-02-15T01:22:46;5.70;99.90
21246;DHT22;10781;50.928;4.440;2023-02-15T01:25:11;5.90;99.90
21246;DHT22;10781;50.928;4.440;2023-02-15T01:27:37;5.90;99.90
21246;DHT22;10781;50.928;4.440;2023-02-15T01:30:03;5.70;99.90
21246;DHT22;10781;50.928;4.440;2023-02-15T01:32:30;5.80;99.90
21246;DHT22;10781;50.928;4.440;2023-02-15T01:34:56;5.70;99.90
21246;DHT22;10781;50.928;4.440;2023-02-15T01:37:22;5.50;99.90
21246;DHT22;10781;50.928;4.440;2023-02-15T01:39:47;5.30;99.90
21246;DHT22;10781;50.928;4.440;2023-02-15T01:42:13;5.30;99.90
21246;DHT22;10781;50.928;4.440;2023-02-15T01:44:55;5.60;99.90
21246;DHT22;10781;50.928;4.440;2023-02-15T01:50:21;5.70;99.90
21246;DHT22;10781;50.928;4.440;2023-02-15T01:52:58;5.40;99.90
21246;DHT22;10781;50.928;4.440;2023-02-15T01:55:31;5.70;99.90
21246;DHT22;10781;50.928;4.440;2023-02-15T01:57:58;5.90;99.90
21246;DHT22;10781;50.928;4.440;2023-02-15T02:00:24;5.80;99.90
21246;DHT22;10781;50.928;4.440;2023-02-15T02:02:53;5.80;99.90
21246;DHT22;10781;50.928;4.440;2023-02-15T02:05:20;5.90;99.90
21246;DHT22;10781;50.928;4.440;2023-02-15T02:07:46;5.90;99.90
21246;DHT22;10781;50.928;4.440;2023-02-15T02:10:16;5.80;99.90
21246;DHT22;10781;50.928;4.440;2023-02-15T02:12:45;5.90;99.90
21246;DHT22;10781;50.928;4.440;2023-02-15T02:15:12;5.60;99.90
21246;DHT22;10781;50.928;4.440;2023-02-15T02:20:17;4.90;99.90
21246;DHT22;10781;50.928;4.440;2023-02-15T02:28:59;5.10;99.90
21246;DHT22;10781;50.928;4.440;2023-02-15T02:34:40;4.60;99.90
21246;DHT22;10781;50.928;4.440;2023-02-15T02:37:28;5.00;99.90
21246;DHT22;10781;50.928;4.440;2023-02-15T02:40:17;5.30;99.90
21246;DHT22;10781;50.928;4.440;2023-02-15T02:42:56;5.20;99.90
21246;DHT22;10781;50.928;4.440;2023-02-15T02:45:39;5.10;99.90
21246;DHT22;10781;50.928;4.440;2023-02-15T02:48:19;5.00;99.90
21246;DHT22;10781;50.928;4.440;2023-02-15T02:50:46;5.20;99.90
21246;DHT22;10781;50.928;4.440;2023-02-15T02:53:12;5.40;99.90
21246;DHT22;10781;50.928;4.440;2023-02-15T02:55:45;5.30;99.90
21246;DHT22;10781;50.928;4.440;2023-02-15T03:01:16;5.40;99.90
21246;DHT22;10781;50.928;4.440;2023-02-15T03:03:44;5.30;99.90
21246;DHT22;10781;50.928;4.440;2023-02-15T03:06:25;5.30;99.90
21246;DHT22;10781;50.928;4.440;2023-02-15T03:09:03;5.40;99.90
21246;DHT22;10781;50.928;4.440;2023-02-15T03:11:30;5.20;99.90
21246;DHT22;10781;50.928;4.440;2023-02-15T03:13:57;5.00;99.90
21246;DHT22;10781;50.928;4.440;2023-02-15T03:16:23;5.10;99.90
21246;DHT22;10781;50.928;4.440;2023-02-15T03:22:06;4.80;99.90
21246;DHT22;10781;50.928;4.440;2023-02-15T03:24:58;4.70;99.90
21246;DHT22;10781;50.928;4.440;2023-02-15T03:27:30;4.70;99.90
21246;DHT22;10781;50.928;4.440;2023-02-15T03:29:58;4.50;99.90
21246;DHT22;10781;50.928;4.440;2023-02-15T03:32:27;4.30;99.90
21246;DHT22;10781;50.928;4.440;2023-02-15T03:34:55;4.60;99.90
21246;DHT22;10781;50.928;4.440;2023-02-15T03:37:36;4.90;99.90
21246;DHT22;10781;50.928;4.440;2023-02-15T03:45:57;5.00;99.90
21246;DHT22;10781;50.928;4.440;2023-02-15T03:48:31;5.00;99.90
21246;DHT22;10781;50.928;4.440;2023-02-15T03:51:02;4.80;99.90
21246;DHT22;10781;50.928;4.440;2023-02-15T03:53:48;4.60;99.90
21246;DHT22;10781;50.928;4.440;2023-02-15T03:56:15;4.30;99.90
21246;DHT22;10781;50.928;4.440;2023-02-15T03:58:41;3.90;99.90
21246;DHT22;10781;50.928;4.440;2023-02-15T04:01:38;3.60;99.90
21246;DHT22;10781;50.928;4.440;2023-02-15T04:06:53;3.70;99.90
21246;DHT22;10781;50.928;4.440;2023-02-15T04:09:18;3.70;99.90
21246;DHT22;10781;50.928;4.440;2023-02-15T04:12:03;3.60;99.90
21246;DHT22;10781;50.928;4.440;2023-02-15T04:14:28;3.40;99.90
21246;DHT22;10781;50.928;4.440;2023-02-15T04:17:12;3.40;99.90
21246;DHT22;10781;50.928;4.440;2023-02-15T04:19:38;3.40;99.90
21246;DHT22;10781;50.928;4.440;2023-02-15T04:22:22;3.40;99.90
21246;DHT22;10781;50.928;4.440;2023-02-15T04:25:06;3.70;99.90
21246;DHT22;10781;50.928;4.440;2023-02-15T04:27:37;4.10;99.90
21246;DHT22;10781;50.928;4.440;2023-02-15T04:30:03;4.40;99.90
21246;DHT22;10781;50.928;4.440;2023-02-15T04:32:29;4.60;99.90
21246;DHT22;10781;50.928;4.440;2023-02-15T04:34:55;4.70;99.90
21246;DHT22;10781;50.928;4.440;2023-02-15T04:37:20;4.80;99.90
21246;DHT22;10781;50.928;4.440;2023-02-15T04:39:46;4.90;99.90
21246;DHT22;10781;50.928;4.440;2023-02-15T04:42:12;4.90;99.90
21246;DHT22;10781;50.928;4.440;2023-02-15T04:44:37;4.90;99.90
21246;DHT22;10781;50.928;4.440;2023-02-15T04:47:03;5.10;99.90
21246;DHT22;10781;50.928;4.440;2023-02-15T04:49:29;5.10;99.90
21246;DHT22;10781;50.928;4.440;2023-02-15T04:51:54;4.80;99.90
21246;DHT22;10781;50.928;4.440;2023-02-15T04:54:20;4.70;99.90
21246;DHT22;10781;50.928;4.440;2023-02-15T04:56:46;4.80;99.90
21246;DHT22;10781;50.928;4.440;2023-02-15T04:59:12;4.80;99.90
21246;DHT22;10781;50.928;4.440;2023-02-15T05:01:38;5.00;99.90
21246;DHT22;10781;50.928;4.440;2023-02-15T05:04:04;4.90;99.90
21246;DHT22;10781;50.928;4.440;2023-02-15T05:06:29;4.90;99.90
21246;DHT22;10781;50.928;4.440;2023-02-15T05:08:55;5.00;99.90
21246;DHT22;10781;50.928;4.440;2023-02-15T05:11:21;5.00;99.90
21246;DHT22;10781;50.928;4.440;2023-02-15T05:13:46;5.00;99.90
21246;DHT22;10781;50.928;4.440;2023-02-15T05:16:12;4.80;99.90
21246;DHT22;10781;50.928;4.440;2023-02-15T05:18:38;4.70;99.90
21246;DHT22;10781;50.928;4.440;2023-02-15T05:21:04;4.70;99.90
21246;DHT22;10781;50.928;4.440;2023-02-15T05:23:29;4.70;99.90
21246;DHT22;10781;50.928;4.440;2023-02-15T05:25:55;4.60;99.90
21246;DHT22;10781;50.928;4.440;2023-02-15T05:28:39;4.40;99.90
21246;DHT22;10781;50.928;4.440;2023-02-15T05:31:08;4.20;99.90
21246;DHT22;10781;50.928;4.440;2023-02-15T05:33:35;4.00;99.90
21246;DHT22;10781;50.928;4.440;2023-02-15T05:36:01;4.10;99.90
21246;DHT22;10781;50.928;4.440;2023-02-15T05:38:27;4.10;99.90
21246;DHT22;10781;50.928;4.440;2023-02-15T05:40:53;4.40;99.90
21246;DHT22;10781;50.928;4.440;2023-02-15T05:43:19;4.50;99.90
21246;DHT22;10781;50.928;4.440;2023-02-15T05:45:50;4.70;99.90
21246;DHT22;10781;50.928;4.440;2023-02-15T05:48:16;4.90;99.90
21246;DHT22;10781;50.928;4.440;2023-02-15T05:50:42;4.80;99.90
21246;DHT22;10781;50.928;4.440;2023-02-15T05:53:08;4.50;99.90
21246;DHT22;10781;50.928;4.440;2023-02-15T05:55:36;4.20;99.90
21246;DHT22;10781;50.928;4.440;2023-02-15T05:58:02;4.20;99.90
21246;DHT22;10781;50.928;4.440;2023-02-15T06:00:28;4.10;99.90
21246;DHT22;10781;50.928;4.440;2023-02-15T06:02:53;4.10;99.90
21246;DHT22;10781;50.928;4.440;2023-02-15T06:05:19;4.30;99.90
21246;DHT22;10781;50.928;4.440;2023-02-15T06:07:45;4.20;99.90
21246;DHT22;10781;50.928;4.440;2023-02-15T06:10:11;4.20;99.90
21246;DHT22;10781;50.928;4.440;2023-02-15T06:12:37;4.00;99.90
21246;DHT22;10781;50.928;4.440;2023-02-15T06:15:03;3.80;99.90
21246;DHT22;10781;50.928;4.440;2023-02-15T06:17:29;3.80;99.90
21246;DHT22;10781;50.928;4.440;2023-02-15T06:19:55;3.70;99.90
21246;DHT22;10781;50.928;4.440;2023-02-15T06:22:20;3.80;99.90
21246;DHT22;10781;50.928;4.440;2023-02-15T06:24:46;4.20;99.90
21246;DHT22;10781;50.928;4.440;2023-02-15T06:27:12;4.30;99.90
21246;DHT22;10781;50.928;4.440;2023-02-15T06:29:38;4.40;99.90
21246;DHT22;10781;50.928;4.440;2023-02-15T06:32:04;4.50;99.90
21246;DHT22;10781;50.928;4.440;2023-02-15T06:34:30;4.50;99.90
21246;DHT22;10781;50.928;4.440;2023-02-15T06:36:56;4.20;99.90
21246;DHT22;10781;50.928;4.440;2023-02-15T06:39:21;3.80;99.90
21246;DHT22;10781;50.928;4.440;2023-02-15T06:41:47;3.50;99.90
21246;DHT22;10781;50.928;4.440;2023-02-15T06:44:13;3.40;99.90
21246;DHT22;10781;50.928;4.440;2023-02-15T06:46:39;3.40;99.90
21246;DHT22;10781;50.928;4.440;2023-02-15T06:49:05;3.70;99.90
21246;DHT22;10781;50.928;4.440;2023-02-15T06:51:30;4.10;99.90
21246;DHT22;10781;50.928;4.440;2023-02-15T06:53:56;4.10;99.90
21246;DHT22;10781;50.928;4.440;2023-02-15T06:56:22;4.00;99.90
21246;DHT22;10781;50.928;4.440;2023-02-15T06:58:47;3.90;99.90
21246;DHT22;10781;50.928;4.440;2023-02-15T07:01:15;3.70;99.90
21246;DHT22;10781;50.928;4.440;2023-02-15T07:03:41;3.50;99.90
21246;DHT22;10781;50.928;4.440;2023-02-15T07:06:06;3.40;99.90
21246;DHT22;10781;50.928;4.440;2023-02-15T07:08:35;3.30;99.90
21246;DHT22;10781;50.928;4.440;2023-02-15T07:11:01;3.20;99.90
21246;DHT22;10781;50.928;4.440;2023-02-15T07:13:46;3.20;99.90
21246;DHT22;10781;50.928;4.440;2023-02-15T07:16:12;3.40;99.90
21246;DHT22;10781;50.928;4.440;2023-02-15T07:18:38;3.50;99.90
21246;DHT22;10781;50.928;4.440;2023-02-15T07:21:05;3.60;99.90
21246;DHT22;10781;50.928;4.440;2023-02-15T07:23:34;3.80;99.90
21246;DHT22;10781;50.928;4.440;2023-02-15T07:26:00;3.90;99.90
21246;DHT22;10781;50.928;4.440;2023-02-15T07:28:27;4.10;99.90
21246;DHT22;10781;50.928;4.440;2023-02-15T07:30:53;4.30;99.90
21246;DHT22;10781;50.928;4.440;2023-02-15T07:33:19;4.60;99.90
21246;DHT22;10781;50.928;4.440;2023-02-15T07:36:00;4.70;99.90
21246;DHT22;10781;50.928;4.440;2023-02-15T07:38:34;5.00;99.90
21246;DHT22;10781;50.928;4.440;2023-02-15T07:41:02;4.90;99.90
21246;DHT22;10781;50.928;4.440;2023-02-15T07:43:29;4.80;99.90
21246;DHT22;10781;50.928;4.440;2023-02-15T07:45:59;4.90;99.90
21246;DHT22;10781;50.928;4.440;2023-02-15T07:48:25;5.10;99.90
21246;DHT22;10781;50.928;4.440;2023-02-15T07:50:50;5.10;99.90
21246;DHT22;10781;50.928;4.440;2023-02-15T07:53:16;5.10;99.90
21246;DHT22;10781;50.928;4.440;2023-02-15T07:55:42;4.90;99.90
21246;DHT22;10781;50.928;4.440;2023-02-15T07:58:07;4.90;99.90
21246;DHT22;10781;50.928;4.440;2023-02-15T08:00:33;4.90;99.90
21246;DHT22;10781;50.928;4.440;2023-02-15T08:03:18;5.10;99.90
21246;DHT22;10781;50.928;4.440;2023-02-15T08:05:45;5.40;99.90
21246;DHT22;10781;50.928;4.440;2023-02-15T08:08:12;5.80;99.90
21246;DHT22;10781;50.928;4.440;2023-02-15T08:10:58;5.90;99.90
21246;DHT22;10781;50.928;4.440;2023-02-15T08:13:44;5.90;99.90
21246;DHT22;10781;50.928;4.440;2023-02-15T08:16:23;6.30;99.90
21246;DHT22;10781;50.928;4.440;2023-02-15T08:18:49;6.60;99.90
21246;DHT22;10781;50.928;4.440;2023-02-15T08:21:15;6.80;99.90
21246;DHT22;10781;50.928;4.440;2023-02-15T08:23:40;6.90;99.90
21246;DHT22;10781;50.928;4.440;2023-02-15T08:26:06;6.80;99.90
21246;DHT22;10781;50.928;4.440;2023-02-15T08:28:32;6.80;99.90
21246;DHT22;10781;50.928;4.440;2023-02-15T08:31:18;6.90;99.90
21246;DHT22;10781;50.928;4.440;2023-02-15T08:33:45;7.10;99.90
21246;DHT22;10781;50.928;4.440;2023-02-15T08:36:13;7.30;99.90
21246;DHT22;10781;50.928;4.440;2023-02-15T08:38:39;7.40;99.90
21246;DHT22;10781;50.928;4.440;2023-02-15T08:43:38;7.60;99.90
21246;DHT22;10781;50.928;4.440;2023-02-15T08:46:08;7.70;99.90
21246;DHT22;10781;50.928;4.440;2023-02-15T08:48:34;7.80;99.90
21246;DHT22;10781;50.928;4.440;2023-02-15T08:51:11;8.10;99.90
21246;DHT22;10781;50.928;4.440;2023-02-15T08:53:38;8.20;99.90
21246;DHT22;10781;50.928;4.440;2023-02-15T08:56:04;8.40;99.90
21246;DHT22;10781;50.928;4.440;2023-02-15T08:58:30;8.60;99.90
21246;DHT22;10781;50.928;4.440;2023-02-15T09:00:57;8.70;99.90
21246;DHT22;10781;50.928;4.440;2023-02-15T09:03:22;9.00;99.90
21246;DHT22;10781;50.928;4.440;2023-02-15T09:05:48;9.20;99.90
21246;DHT22;10781;50.928;4.440;2023-02-15T09:08:14;9.40;99.90
21246;DHT22;10781;50.928;4.440;2023-02-15T09:10:40;9.50;99.90
21246;DHT22;10781;50.928;4.440;2023-02-15T09:13:06;9.70;99.90
21246;DHT22;10781;50.928;4.440;2023-02-15T09:15:31;9.80;99.90
21246;DHT22;10781;50.928;4.440;2023-02-15T09:17:57;10.00;99.90
21246;DHT22;10781;50.928;4.440;2023-02-15T09:20:26;10.00;99.90
21246;DHT22;10781;50.928;4.440;2023-02-15T09:22:53;10.10;99.90
21246;DHT22;10781;50.928;4.440;2023-02-15T09:25:19;10.00;99.90
21246;DHT22;10781;50.928;4.440;2023-02-15T09:27:45;10.20;99.90
21246;DHT22;10781;50.928;4.440;2023-02-15T09:30:11;10.40;99.90
21246;DHT22;10781;50.928;4.440;2023-02-15T09:32:37;10.60;99.90
21246;DHT22;10781;50.928;4.440;2023-02-15T09:35:03;10.50;99.90
21246;DHT22;10781;50.928;4.440;2023-02-15T09:37:30;10.70;99.90
21246;DHT22;10781;50.928;4.440;2023-02-15T09:39:57;10.80;99.90
21246;DHT22;10781;50.928;4.440;2023-02-15T09:42:58;10.90;99.90
21246;DHT22;10781;50.928;4.440;2023-02-15T09:53:45;11.70;99.90
21246;DHT22;10781;50.928;4.440;2023-02-15T10:04:50;12.80;99.90
21246;DHT22;10781;50.928;4.440;2023-02-15T10:10:19;12.70;99.90
21246;DHT22;10781;50.928;4.440;2023-02-15T10:13:09;12.80;99.90
21246;DHT22;10781;50.928;4.440;2023-02-15T10:15:53;13.00;99.90
21246;DHT22;10781;50.928;4.440;2023-02-15T10:21:39;12.90;99.90
21246;DHT22;10781;50.928;4.440;2023-02-15T10:24:21;12.80;99.90
21246;DHT22;10781;50.928;4.440;2023-02-15T10:26:56;12.90;99.90
21246;DHT22;10781;50.928;4.440;2023-02-15T10:29:48;12.90;99.90
21246;DHT22;10781;50.928;4.440;2023-02-15T10:32:25;13.00;99.90
21246;DHT22;10781;50.928;4.440;2023-02-15T10:40:28;13.00;99.90
21246;DHT22;10781;50.928;4.440;2023-02-15T10:57:02;13.30;99.90
21246;DHT22;10781;50.928;4.440;2023-02-15T11:07:37;13.70;99.90
21246;DHT22;10781;50.928;4.440;2023-02-15T11:12:45;14.20;99.90
21246;DHT22;10781;50.928;4.440;2023-02-15T11:17:47;15.10;99.90
21246;DHT22;10781;50.928;4.440;2023-02-15T11:20:24;16.20;99.90
21246;DHT22;10781;50.928;4.440;2023-02-15T11:22:53;17.40;99.90
21246;DHT22;10781;50.928;4.440;2023-02-15T11:25:32;18.30;99.90
21246;DHT22;10781;50.928;4.440;2023-02-15T11:28:00;18.50;99.90
21246;DHT22;10781;50.928;4.440;2023-02-15T11:30:42;18.90;99.90
21246;DHT22;10781;50.928;4.440;2023-02-15T11:33:19;19.30;99.90
21246;DHT22;10781;50.928;4.440;2023-02-15T11:36:18;19.60;99.90
21246;DHT22;10781;50.928;4.440;2023-02-15T11:38:47;19.60;99.90
21246;DHT22;10781;50.928;4.440;2023-02-15T11:41:22;20.10;99.90
21246;DHT22;10781;50.928;4.440;2023-02-15T11:43:58;19.80;98.00
21246;DHT22;10781;50.928;4.440;2023-02-15T11:46:26;19.40;98.40
21246;DHT22;10781;50.928;4.440;2023-02-15T11:48:52;19.20;98.20
21246;DHT22;10781;50.928;4.440;2023-02-15T11:51:20;19.60;97.80
21246;DHT22;10781;50.928;4.440;2023-02-15T11:53:47;19.80;97.00
21246;DHT22;10781;50.928;4.440;2023-02-15T11:56:18;20.30;96.40
21246;DHT22;10781;50.928;4.440;2023-02-15T11:59:04;20.70;95.20
21246;DHT22;10781;50.928;4.440;2023-02-15T12:01:43;21.40;95.10
21246;DHT22;10781;50.928;4.440;2023-02-15T12:07:15;22.10;91.60
21246;DHT22;10781;50.928;4.440;2023-02-15T12:09:50;21.30;91.30
21246;DHT22;10781;50.928;4.440;2023-02-15T12:14:51;22.00;91.50
21246;DHT22;10781;50.928;4.440;2023-02-15T12:17:18;22.40;91.10
21246;DHT22;10781;50.928;4.440;2023-02-15T12:19:46;22.50;88.60
21246;DHT22;10781;50.928;4.440;2023-02-15T12:22:36;20.70;88.90
21246;DHT22;10781;50.928;4.440;2023-02-15T12:30:57;17.90;94.80
21246;DHT22;10781;50.928;4.440;2023-02-15T12:33:36;17.70;95.80
21246;DHT22;10781;50.928;4.440;2023-02-15T12:36:47;17.80;96.60
21246;DHT22;10781;50.928;4.440;2023-02-15T12:39:27;18.20;96.70
21246;DHT22;10781;50.928;4.440;2023-02-15T12:42:00;19.00;96.70
21246;DHT22;10781;50.928;4.440;2023-02-15T12:44:36;19.80;94.60
21246;DHT22;10781;50.928;4.440;2023-02-15T12:49:41;22.20;92.70
21246;DHT22;10781;50.928;4.440;2023-02-15T12:54:43;23.60;85.30
21246;DHT22;10781;50.928;4.440;2023-02-15T13:02:47;22.30;82.70
21246;DHT22;10781;50.928;4.440;2023-02-15T13:08:26;22.70;84.60
21246;DHT22;10781;50.928;4.440;2023-02-15T13:11:02;23.30;82.40
21246;DHT22;10781;50.928;4.440;2023-02-15T13:13:31;24.00;80.60
21246;DHT22;10781;50.928;4.440;2023-02-15T13:16:04;24.30;78.80
21246;DHT22;10781;50.928;4.440;2023-02-15T13:18:44;24.20;77.20
21246;DHT22;10781;50.928;4.440;2023-02-15T13:21:12;24.60;77.20
21246;DHT22;10781;50.928;4.440;2023-02-15T13:23:44;24.50;75.00
21246;DHT22;10781;50.928;4.440;2023-02-15T13:26:15;23.70;75.40
21246;DHT22;10781;50.928;4.440;2023-02-15T13:28:46;22.10;78.20
21246;DHT22;10781;50.928;4.440;2023-02-15T13:31:18;21.00;81.30
21246;DHT22;10781;50.928;4.440;2023-02-15T13:33:58;20.10;84.40
21246;DHT22;10781;50.928;4.440;2023-02-15T13:47:06;19.30;90.20
21246;DHT22;10781;50.928;4.440;2023-02-15T13:50:20;19.20;90.40
21246;DHT22;10781;50.928;4.440;2023-02-15T13:52:27;19.30;90.50
21246;DHT22;10781;50.928;4.440;2023-02-15T14:21:10;18.40;93.50
21246;DHT22;10781;50.928;4.440;2023-02-15T14:29:20;18.00;94.30
21246;DHT22;10781;50.928;4.440;2023-02-15T14:31:54;17.90;94.90
21246;DHT22;10781;50.928;4.440;2023-02-15T14:34:30;17.60;95.10
21246;DHT22;10781;50.928;4.440;2023-02-15T14:36:57;17.60;95.60
21246;DHT22;10781;50.928;4.440;2023-02-15T14:40:18;17.70;96.10
21246;DHT22;10781;50.928;4.440;2023-02-15T14:42:50;17.50;96.20
21246;DHT22;10781;50.928;4.440;2023-02-15T14:45:49;17.40;96.60
21246;DHT22;10781;50.928;4.440;2023-02-15T14:48:38;17.50;97.10
21246;DHT22;10781;50.928;4.440;2023-02-15T14:51:04;17.20;97.80
21246;DHT22;10781;50.928;4.440;2023-02-15T14:56:16;17.30;99.00
21246;DHT22;10781;50.928;4.440;2023-02-15T15:01:37;17.20;99.40
21246;DHT22;10781;50.928;4.440;2023-02-15T15:04:22;17.20;99.80
21246;DHT22;10781;50.928;4.440;2023-02-15T15:09:36;17.00;99.90
21246;DHT22;10781;50.928;4.440;2023-02-15T15:15:01;16.80;99.90
21246;DHT22;10781;50.928;4.440;2023-02-15T15:20:40;16.70;99.90
21246;DHT22;10781;50.928;4.440;2023-02-15T15:31:26;16.60;99.90
21246;DHT22;10781;50.928;4.440;2023-02-15T15:42:19;15.90;99.90
21246;DHT22;10781;50.928;4.440;2023-02-15T15:50:41;15.80;99.90
21246;DHT22;10781;50.928;4.440;2023-02-15T15:53:19;15.80;99.90
21246;DHT22;10781;50.928;4.440;2023-02-15T15:55:47;15.80;99.90
21246;DHT22;10781;50.928;4.440;2023-02-15T15:58:17;15.90;99.90
21246;DHT22;10781;50.928;4.440;2023-02-15T16:00:55;15.50;99.90
21246;DHT22;10781;50.928;4.440;2023-02-15T16:03:24;15.30;99.90
21246;DHT22;10781;50.928;4.440;2023-02-15T16:05:50;15.00;99.90
21246;DHT22;10781;50.928;4.440;2023-02-15T16:08:38;15.20;99.90
21246;DHT22;10781;50.928;4.440;2023-02-15T16:11:25;15.10;99.90
21246;DHT22;10781;50.928;4.440;2023-02-15T16:13:52;15.00;99.90
21246;DHT22;10781;50.928;4.440;2023-02-15T16:16:24;14.90;99.90
21246;DHT22;10781;50.928;4.440;2023-02-15T16:18:53;14.60;99.90
21246;DHT22;10781;50.928;4.440;2023-02-15T16:21:23;14.60;99.90
21246;DHT22;10781;50.928;4.440;2023-02-15T16:29:29;14.60;99.90
21246;DHT22;10781;50.928;4.440;2023-02-15T16:32:15;14.30;99.90
21246;DHT22;10781;50.928;4.440;2023-02-15T16:35:02;14.40;99.90
21246;DHT22;10781;50.928;4.440;2023-02-15T16:37:34;14.20;99.90
21246;DHT22;10781;50.928;4.440;2023-02-15T16:40:00;14.00;99.90
21246;DHT22;10781;50.928;4.440;2023-02-15T16:42:26;14.10;99.90
21246;DHT22;10781;50.928;4.440;2023-02-15T16:45:06;13.90;99.90
21246;DHT22;10781;50.928;4.440;2023-02-15T16:47:38;13.90;99.90
21246;DHT22;10781;50.928;4.440;2023-02-15T16:50:05;13.70;99.90
21246;DHT22;10781;50.928;4.440;2023-02-15T16:52:32;13.70;99.90
21246;DHT22;10781;50.928;4.440;2023-02-15T16:55:02;13.50;99.90
21246;DHT22;10781;50.928;4.440;2023-02-15T16:57:33;13.40;99.90
21246;DHT22;10781;50.928;4.440;2023-02-15T17:00:17;13.50;99.90
21246;DHT22;10781;50.928;4.440;2023-02-15T17:02:54;13.50;99.90
21246;DHT22;10781;50.928;4.440;2023-02-15T17:05:23;13.30;99.90
21246;DHT22;10781;50.928;4.440;2023-02-15T17:08:13;13.00;99.90
21246;DHT22;10781;50.928;4.440;2023-02-15T17:10:41;12.90;99.90
21246;DHT22;10781;50.928;4.440;2023-02-15T17:13:13;13.00;99.90
21246;DHT22;10781;50.928;4.440;2023-02-15T17:18:24;12.80;99.90
21246;DHT22;10781;50.928;4.440;2023-02-15T17:20:54;12.80;99.90
21246;DHT22;10781;50.928;4.440;2023-02-15T17:23:35;12.80;99.90
21246;DHT22;10781;50.928;4.440;2023-02-15T17:26:20;12.70;99.90
21246;DHT22;10781;50.928;4.440;2023-02-15T17:28:51;12.50;99.90
21246;DHT22;10781;50.928;4.440;2023-02-15T17:31:19;12.50;99.90
21246;DHT22;10781;50.928;4.440;2023-02-15T17:33:45;12.50;99.90
21246;DHT22;10781;50.928;4.440;2023-02-15T17:36:22;12.60;99.90
21246;DHT22;10781;50.928;4.440;2023-02-15T17:41:35;12.50;99.90
21246;DHT22;10781;50.928;4.440;2023-02-15T17:44:03;12.50;99.90
21246;DHT22;10781;50.928;4.440;2023-02-15T17:46:34;12.50;99.90
21246;DHT22;10781;50.928;4.440;2023-02-15T17:49:01;12.50;99.90
21246;DHT22;10781;50.928;4.440;2023-02-15T17:51:27;12.50;99.90
21246;DHT22;10781;50.928;4.440;2023-02-15T17:53:52;12.30;99.90
21246;DHT22;10781;50.928;4.440;2023-02-15T17:56:37;12.40;99.90
21246;DHT22;10781;50.928;4.440;2023-02-15T17:59:04;12.40;99.90
21246;DHT22;10781;50.928;4.440;2023-02-15T18:01:34;12.40;99.90
21246;DHT22;10781;50.928;4.440;2023-02-15T18:04:20;12.20;99.90
21246;DHT22;10781;50.928;4.440;2023-02-15T18:07:06;12.20;99.90
21246;DHT22;10781;50.928;4.440;2023-02-15T18:09:51;12.20;99.90
21246;DHT22;10781;50.928;4.440;2023-02-15T18:12:37;12.10;99.90
21246;DHT22;10781;50.928;4.440;2023-02-15T18:15:05;12.10;99.90
21246;DHT22;10781;50.928;4.440;2023-02-15T18:17:37;12.20;99.90
21246;DHT22;10781;50.928;4.440;2023-02-15T18:20:27;12.00;99.90
21246;DHT22;10781;50.928;4.440;2023-02-15T18:22:54;12.10;99.90
21246;DHT22;10781;50.928;4.440;2023-02-15T18:25:21;12.00;99.90
21246;DHT22;10781;50.928;4.440;2023-02-15T18:27:49;11.80;99.90
21246;DHT22;10781;50.928;4.440;2023-02-15T18:30:18;12.00;99.90
21246;DHT22;10781;50.928;4.440;2023-02-15T18:32:45;12.00;99.90
21246;DHT22;10781;50.928;4.440;2023-02-15T18:35:16;11.90;99.90
21246;DHT22;10781;50.928;4.440;2023-02-15T18:37:43;11.80;99.90
21246;DHT22;10781;50.928;4.440;2023-02-15T18:40:18;11.70;99.90
21246;DHT22;10781;50.928;4.440;2023-02-15T18:42:44;11.70;99.90
21246;DHT22;10781;50.928;4.440;2023-02-15T18:45:18;11.70;99.90
21246;DHT22;10781;50.928;4.440;2023-02-15T18:47:45;11.80;99.90
21246;DHT22;10781;50.928;4.440;2023-02-15T18:50:13;11.80;99.90
21246;DHT22;10781;50.928;4.440;2023-02-15T18:52:39;11.80;99.90
21246;DHT22;10781;50.928;4.440;2023-02-15T18:55:17;11.80;99.90
21246;DHT22;10781;50.928;4.440;2023-02-15T18:57:45;11.80;99.90
21246;DHT22;10781;50.928;4.440;2023-02-15T19:00:16;11.70;99.90
21246;DHT22;10781;50.928;4.440;2023-02-15T19:02:42;11.70;99.90
21246;DHT22;10781;50.928;4.440;2023-02-15T19:05:08;11.70;99.90
21246;DHT22;10781;50.928;4.440;2023-02-15T19:07:34;11.60;99.90
21246;DHT22;10781;50.928;4.440;2023-02-15T19:10:04;11.60;99.90
21246;DHT22;10781;50.928;4.440;2023-02-15T19:12:30;11.60;99.90
21246;DHT22;10781;50.928;4.440;2023-02-15T19:14:56;11.70;99.90
21246;DHT22;10781;50.928;4.440;2023-02-15T19:17:23;11.50;99.90
21246;DHT22;10781;50.928;4.440;2023-02-15T19:19:49;11.40;99.90
21246;DHT22;10781;50.928;4.440;2023-02-15T19:22:24;11.40;99.90
21246;DHT22;10781;50.928;4.440;2023-02-15T19:24:50;11.30;99.90
21246;DHT22;10781;50.928;4.440;2023-02-15T19:27:43;11.40;99.90